Time;durP1;ratioP1;P1;durP2;ratioP2;P2;SDS_P1;SDS_P2;PMS_P1;PMS_P2;Temp;Humidity;BMP_temperature;BMP_pressure;BME280_temperature;BME280_humidity;BME280_pressure;Samples;Min_cycle;Max_cycle;Signal;HPM_P1;HPM_P2
2022/08/26 00:00:10;;;;;;;4.53;2.42;;;;;;;25.95;47.82;98914.13;5048409;28;20041;-86
2022/08/26 00:02:36;;;;;;;3.20;1.58;;;;;;;26.16;47.93;98950.03;5066078;28;20060;-86
2022/08/26 00:05:02;;;;;;;1.48;1.38;;;;;;;25.90;48.02;98918.13;5066003;28;20052;-85
2022/08/26 00:07:28;;;;;;;1.98;0.47;;;;;;;26.18;48.44;98968.81;5066037;28;20032;-86
2022/08/26 00:09:53;;;;;;;4.38;1.92;;;;;;;26.00;48.34;98953.28;5065870;28;20029;-85
2022/08/26 00:12:19;;;;;;;2.65;1.98;;;;;;;26.04;48.16;98952.03;5066561;28;20063;-85
2022/08/26 00:14:45;;;;;;;12.27;2.47;;;;;;;26.04;48.05;98953.84;5066126;28;20513;-85
2022/08/26 00:17:10;;;;;;;0.32;0.32;;;;;;;25.84;48.79;98943.00;5065572;28;20044;-85
2022/08/26 00:19:36;;;;;;;3.70;1.27;;;;;;;26.13;47.24;98976.47;5065976;28;20437;-85
2022/08/26 00:22:03;;;;;;;4.15;2.25;;;;;;;26.05;47.11;98937.50;5066261;28;20037;-85
2022/08/26 00:24:28;;;;;;;0.88;0.82;;;;;;;26.11;47.77;98962.28;5066187;28;20067;-86
2022/08/26 00:26:54;;;;;;;2.25;1.23;;;;;;;26.29;47.86;98966.00;5067365;28;20052;-86
2022/08/26 00:29:19;;;;;;;3.97;1.13;;;;;;;26.01;47.83;98935.22;5069922;28;20039;-86
2022/08/26 00:31:45;;;;;;;1.13;1.02;;;;;;;26.01;47.76;98929.81;5069516;28;20807;-86
2022/08/26 00:34:11;;;;;;;1.08;0.73;;;;;;;26.05;48.05;98942.06;5069802;28;20032;-87
2022/08/26 00:36:38;;;;;;;0.88;0.85;;;;;;;26.19;47.36;98949.75;5069485;28;20107;-86
2022/08/26 00:39:05;;;;;;;2.00;1.27;;;;;;;26.36;47.29;98964.41;5068867;28;20028;-86
2022/08/26 00:41:31;;;;;;;1.92;1.45;;;;;;;26.20;47.67;98939.81;5069578;28;20028;-86
2022/08/26 00:43:56;;;;;;;1.13;0.88;;;;;;;26.12;47.53;98940.50;5069323;28;20040;-85
2022/08/26 00:46:27;;;;;;;1.50;1.40;;;;;;;26.19;48.05;98975.94;5068675;28;20482;-86
2022/08/26 00:49:03;;;;;;;4.93;1.60;;;;;;;26.27;47.61;98965.25;5069728;28;20060;-86
2022/08/26 00:51:29;;;;;;;3.20;1.00;;;;;;;26.06;47.76;98941.06;5051313;28;20411;-87
2022/08/26 00:54:00;;;;;;;3.30;1.27;;;;;;;25.89;48.91;98916.41;5069469;28;20046;-87
2022/08/26 00:56:33;;;;;;;6.93;1.90;;;;;;;25.63;49.51;98904.44;5049462;28;20533;-87
2022/08/26 00:59:05;;;;;;;1.27;0.73;;;;;;;25.76;49.32;98939.28;5069149;28;20123;-88
2022/08/26 01:01:31;;;;;;;5.22;1.77;;;;;;;25.67;49.32;98930.13;5051057;28;20047;-87
2022/08/26 01:03:58;;;;;;;3.58;2.35;;;;;;;25.61;49.16;98907.25;5068338;28;20036;-87
2022/08/26 01:06:26;;;;;;;4.35;1.45;;;;;;;25.79;49.08;98939.00;5049059;28;20499;-87
2022/08/26 01:08:52;;;;;;;4.50;1.95;;;;;;;25.57;49.86;98913.06;5050988;28;20043;-87
2022/08/26 01:11:18;;;;;;;1.58;1.05;;;;;;;25.36;49.80;98895.97;5068793;28;20157;-86
2022/08/26 01:13:45;;;;;;;1.85;1.33;;;;;;;25.64;49.72;98927.72;5068646;28;20039;-86
2022/08/26 01:16:13;;;;;;;4.33;1.10;;;;;;;25.45;50.19;98905.06;5036157;28;20086;-86
2022/08/26 01:18:42;;;;;;;11.90;1.48;;;;;;;25.57;50.11;98942.78;5068684;28;20568;-87
2022/08/26 01:21:21;;;;;;;5.13;1.95;;;;;;;25.62;49.71;98918.91;5051074;28;20045;-86
2022/08/26 01:23:50;;;;;;;26.55;1.45;;;;;;;25.35;49.78;98886.16;5068431;28;20414;-87
2022/08/26 01:26:24;;;;;;;1.42;1.33;;;;;;;25.53;49.45;98926.84;5067942;28;20040;-86
2022/08/26 01:28:52;;;;;;;1.35;0.75;;;;;;;25.20;49.43;98876.69;5050643;28;20039;-87
2022/08/26 01:31:23;;;;;;;6.40;1.30;;;;;;;25.71;49.02;98923.47;5068288;28;20036;-88
2022/08/26 01:34:09;;;;;;;7.47;1.25;;;;;;;25.37;49.66;98900.34;5047220;28;20029;-89
2022/08/26 01:36:37;;;;;;;1.42;0.75;;;;;;;25.30;49.08;98899.22;5039659;28;20119;-88
2022/08/26 01:39:04;;;;;;;1.00;0.30;;;;;;;25.48;49.50;98904.78;5067636;28;20040;-86
2022/08/26 01:41:30;;;;;;;4.35;1.30;;;;;;;25.60;49.82;98920.91;5068289;28;20051;-86
2022/08/26 01:43:58;;;;;;;2.80;1.35;;;;;;;25.34;49.17;98906.03;5068470;28;20045;-86
2022/08/26 01:46:26;;;;;;;7.53;3.75;;;;;;;25.31;49.13;98905.44;5068062;28;20063;-86
2022/08/26 01:48:53;;;;;;;6.38;2.25;;;;;;;25.32;49.74;98905.31;5068013;28;20036;-86
2022/08/26 01:51:21;;;;;;;1.63;1.13;;;;;;;25.26;49.27;98894.19;5068097;28;20036;-87
2022/08/26 01:53:47;;;;;;;7.45;0.75;;;;;;;25.22;49.49;98906.22;5067959;28;20032;-87
2022/08/26 01:56:14;;;;;;;3.97;2.05;;;;;;;25.21;49.25;98889.19;5067468;28;20476;-88
2022/08/26 01:58:50;;;;;;;1.00;0.95;;;;;;;25.27;49.30;98867.06;5068177;28;20027;-87
2022/08/26 02:01:16;;;;;;;1.52;1.27;;;;;;;25.48;48.67;98893.16;5049462;28;20119;-87
2022/08/26 02:04:02;;;;;;;6.32;1.80;;;;;;;25.05;49.12;98869.94;5067555;28;20032;-87
2022/08/26 02:06:29;;;;;;;0.20;0.20;;;;;;;25.30;49.11;98901.91;5067214;28;20045;-85
2022/08/26 02:08:59;;;;;;;5.95;1.10;;;;;;;25.35;49.55;98910.44;5067848;28;20064;-85
2022/08/26 02:11:25;;;;;;;0.73;0.73;;;;;;;25.37;48.95;98910.31;5048822;28;20487;-86
2022/08/26 02:13:56;;;;;;;6.72;2.60;;;;;;;25.53;48.12;98926.84;5067918;28;20115;-87
2022/08/26 02:16:25;;;;;;;0.80;0.80;;;;;;;25.54;48.45;98925.84;5067128;28;20792;-87
2022/08/26 02:18:54;;;;;;;10.02;1.55;;;;;;;25.62;48.17;98913.50;5067288;28;20093;-86
2022/08/26 02:21:20;;;;;;;2.72;1.10;;;;;;;25.51;48.22;98912.63;5067372;28;20036;-86
2022/08/26 02:23:46;;;;;;;1.33;0.77;;;;;;;25.78;48.53;98945.38;5068250;28;20044;-85
2022/08/26 02:26:15;;;;;;;0.88;0.85;;;;;;;25.54;48.12;98912.34;5048734;28;20047;-87
2022/08/26 02:28:56;;;;;;;1.45;0.80;;;;;;;25.79;48.24;98939.00;5067417;28;20028;-88
2022/08/26 02:31:21;;;;;;;0.73;0.65;;;;;;;25.61;48.84;98923.47;5066925;28;20047;-86
2022/08/26 02:33:47;;;;;;;4.72;1.52;;;;;;;25.60;49.01;98919.03;5067798;28;20043;-86
2022/08/26 02:36:20;;;;;;;0.68;0.50;;;;;;;25.43;48.32;98909.75;5069380;28;20094;-86
2022/08/26 02:38:46;;;;;;;2.55;1.55;;;;;;;25.61;47.97;98944.19;5067698;28;20033;-87
2022/08/26 02:41:11;;;;;;;0.32;0.32;;;;;;;25.87;47.94;98917.53;5067828;28;20039;-87
2022/08/26 02:43:37;;;;;;;0.65;0.63;;;;;;;25.61;47.81;98898.28;5052528;28;20053;-86
2022/08/26 02:46:03;;;;;;;13.13;2.60;;;;;;;25.25;48.77;98890.63;5068741;28;20796;-87
2022/08/26 02:48:29;;;;;;;3.03;0.95;;;;;;;25.53;48.19;98909.78;5046335;28;20036;-87
2022/08/26 02:50:54;;;;;;;15.95;3.40;;;;;;;25.42;47.73;98909.91;5061538;28;20148;-87
2022/08/26 02:53:20;;;;;;;2.10;1.70;;;;;;;25.77;45.74;98927.47;5067713;28;20189;-86
2022/08/26 02:55:48;;;;;;;6.15;2.13;;;;;;;25.78;46.90;98924.66;5066828;28;20028;-87
2022/08/26 02:58:14;;;;;;;7.68;2.22;;;;;;;25.95;46.49;98904.19;5066433;28;20051;-86
2022/08/26 03:00:40;;;;;;;3.65;2.53;;;;;;;25.96;46.39;98924.78;5049258;28;20102;-85
2022/08/26 03:03:06;;;;;;;1.77;1.30;;;;;;;26.16;46.47;98941.06;5067105;28;20082;-87
2022/08/26 03:05:32;;;;;;;1.10;0.90;;;;;;;26.06;45.93;98933.81;5067184;28;20029;-85
2022/08/26 03:07:58;;;;;;;0.90;0.75;;;;;;;25.68;47.77;98946.19;5067291;28;20421;-85
2022/08/26 03:10:24;;;;;;;10.50;2.67;;;;;;;25.74;47.08;98947.50;5066580;28;20035;-89
2022/08/26 03:12:49;;;;;;;2.45;0.73;;;;;;;25.58;47.38;98925.56;5066817;28;20036;-86
2022/08/26 03:15:17;;;;;;;1.10;0.88;;;;;;;25.40;47.40;98917.28;5067092;28;20042;-86
2022/08/26 03:17:43;;;;;;;6.72;2.38;;;;;;;25.52;47.76;98917.03;5066909;28;20040;-86
2022/08/26 03:20:11;;;;;;;11.60;1.95;;;;;;;25.36;47.91;98911.28;5067019;28;20031;-88
2022/08/26 03:22:37;;;;;;;3.00;2.70;;;;;;;25.18;47.85;98913.75;5066361;28;20438;-87
2022/08/26 03:25:05;;;;;;;5.22;2.30;;;;;;;25.06;48.91;98929.16;5067406;28;20032;-87
2022/08/26 03:27:31;;;;;;;7.45;2.05;;;;;;;24.90;49.17;98918.88;5050864;28;20102;-88
2022/08/26 03:32:43;;;;;;;3.03;2.15;;;;;;;24.99;48.37;98887.53;5054799;28;20130;-87
2022/08/26 03:35:10;;;;;;;1.55;1.30;;;;;;;25.05;48.41;98916.66;5072929;28;20586;-87
2022/08/26 03:37:35;;;;;;;0.47;0.47;;;;;;;25.13;48.76;98940.28;5049546;28;20437;-87
2022/08/26 03:40:01;;;;;;;3.83;1.55;;;;;;;25.27;48.66;98926.44;5066084;28;20056;-87
2022/08/26 03:42:27;;;;;;;1.35;1.20;;;;;;;25.26;48.60;98913.09;5052520;28;20053;-88
2022/08/26 03:44:52;;;;;;;0.98;0.77;;;;;;;24.99;49.36;98936.06;5058862;28;20116;-86
2022/08/26 03:47:18;;;;;;;6.30;1.88;;;;;;;25.07;49.56;98938.09;5040899;28;20109;-89
2022/08/26 03:49:44;;;;;;;2.88;0.73;;;;;;;24.89;49.13;98937.88;5066610;28;20087;-88
2022/08/26 03:52:09;;;;;;;2.10;1.10;;;;;;;25.13;49.00;98959.16;5058696;28;20033;-87
2022/08/26 03:54:35;;;;;;;2.92;2.63;;;;;;;24.68;50.23;98906.38;5066431;28;20029;-88
2022/08/26 03:57:00;;;;;;;2.20;1.13;;;;;;;24.86;49.43;98952.47;5065954;28;20041;-86
2022/08/26 03:59:26;;;;;;;1.88;1.42;;;;;;;24.62;49.21;98920.38;5066416;28;20062;-85
2022/08/26 04:01:52;;;;;;;3.67;1.23;;;;;;;24.79;49.02;98957.56;5068335;28;20059;-86
2022/08/26 04:04:17;;;;;;;0.88;0.85;;;;;;;24.94;48.90;98941.03;5069074;28;20486;-85
2022/08/26 04:06:43;;;;;;;1.58;1.20;;;;;;;24.87;48.88;98950.63;5069708;28;20036;-85
2022/08/26 04:09:12;;;;;;;1.15;0.68;;;;;;;24.88;48.59;98928.91;5068829;28;20043;-86
2022/08/26 04:11:38;;;;;;;4.30;1.00;;;;;;;24.93;48.72;98928.50;5067015;28;20056;-85
2022/08/26 04:14:13;;;;;;;2.95;1.92;;;;;;;24.84;49.07;98930.19;5044436;28;20045;-86
2022/08/26 04:16:39;;;;;;;3.35;2.30;;;;;;;24.97;48.38;98947.00;5059961;28;20043;-86
2022/08/26 04:19:05;;;;;;;1.58;1.27;;;;;;;24.89;48.72;98941.44;5058496;28;20051;-85
2022/08/26 04:21:31;;;;;;;1.95;1.02;;;;;;;24.90;49.19;98945.84;5068833;28;20125;-86
2022/08/26 04:23:57;;;;;;;5.28;1.50;;;;;;;24.72;48.82;98918.63;5069182;28;20040;-86
2022/08/26 04:26:23;;;;;;;2.00;1.50;;;;;;;24.80;49.02;98940.38;5067621;28;20028;-88
2022/08/26 04:28:52;;;;;;;2.15;1.38;;;;;;;24.62;48.29;98896.13;5055726;28;20033;-88
2022/08/26 04:31:18;;;;;;;7.10;2.45;;;;;;;24.46;48.85;98897.41;5066551;28;20050;-89
2022/08/26 04:33:46;;;;;;;6.88;1.15;;;;;;;24.75;49.30;98922.91;5051854;28;20037;-88
2022/08/26 04:36:12;;;;;;;1.70;0.98;;;;;;;24.92;48.82;98954.66;5043400;28;20100;-88
2022/08/26 04:38:37;;;;;;;2.20;1.92;;;;;;;24.87;49.77;98932.63;5065884;28;20037;-92
2022/08/26 04:41:06;;;;;;;4.30;1.92;;;;;;;24.60;49.54;98904.34;5072204;28;20584;-91
2022/08/26 04:43:31;;;;;;;2.28;1.88;;;;;;;24.57;49.25;98914.50;5051316;28;20172;-92
2022/08/26 04:46:02;;;;;;;1.23;0.65;;;;;;;24.46;49.65;98907.34;5068485;28;20047;-90
2022/08/26 04:48:29;;;;;;;16.33;2.80;;;;;;;24.47;49.46;98895.56;5054531;28;20035;-91
2022/08/26 04:50:55;;;;;;;24.00;1.55;;;;;;;24.86;48.61;98965.97;5073073;28;20064;-90
2022/08/26 04:53:21;;;;;;;1.35;1.15;;;;;;;24.65;48.65;98931.78;5072264;28;20140;-90
2022/08/26 04:55:47;;;;;;;1.80;1.40;;;;;;;24.55;49.93;98903.84;5054070;28;20032;-90
2022/08/26 04:58:14;;;;;;;1.08;1.00;;;;;;;24.73;50.12;98927.53;5071995;28;20036;-88
2022/08/26 05:00:42;;;;;;;3.22;1.10;;;;;;;24.72;49.99;98918.63;5071850;28;20039;-91
2022/08/26 05:03:08;;;;;;;1.52;1.25;;;;;;;24.81;49.29;98925.91;5070557;28;20035;-92
2022/08/26 05:05:40;;;;;;;7.72;3.42;;;;;;;24.87;49.38;98938.03;5072784;28;20473;-88
2022/08/26 05:08:06;;;;;;;2.90;2.65;;;;;;;24.79;49.66;98945.91;5048008;28;20438;-87
2022/08/26 05:10:33;;;;;;;1.95;1.70;;;;;;;24.89;49.34;98954.91;5060677;28;20051;-86
2022/08/26 05:12:59;;;;;;;3.17;1.42;;;;;;;24.59;50.36;98935.00;5049518;28;20136;-85
2022/08/26 05:15:25;;;;;;;1.30;1.20;;;;;;;24.62;50.08;98921.25;5067659;28;20111;-86
2022/08/26 05:17:50;;;;;;;1.65;1.48;;;;;;;24.72;49.80;98950.13;5068714;28;20114;-85
2022/08/26 05:20:16;;;;;;;1.65;0.75;;;;;;;24.72;51.16;98971.69;5069550;28;20033;-91
2022/08/26 05:22:42;;;;;;;1.55;1.10;;;;;;;24.60;50.12;98968.19;5071381;28;20478;-89
2022/08/26 05:25:08;;;;;;;14.40;1.05;;;;;;;24.88;50.36;98985.56;5053376;28;20121;-89
2022/08/26 05:27:33;;;;;;;0.93;0.90;;;;;;;24.73;50.71;98981.47;5071611;28;20036;-91
2022/08/26 05:29:59;;;;;;;0.57;0.57;;;;;;;24.72;50.79;98980.63;5071038;28;20145;-89
2022/08/26 05:32:24;;;;;;;2.53;1.50;;;;;;;24.62;49.92;98955.44;5070741;28;20485;-88
2022/08/26 05:34:54;;;;;;;10.32;2.38;;;;;;;24.67;50.91;98943.28;5070362;28;20028;-91
2022/08/26 05:37:20;;;;;;;7.53;1.48;;;;;;;24.66;50.39;98919.13;5070154;28;20033;-91
2022/08/26 05:39:46;;;;;;;12.73;1.50;;;;;;;25.14;50.20;98987.84;5070693;28;20028;-90
2022/08/26 05:42:11;;;;;;;1.67;1.13;;;;;;;25.05;50.53;98965.22;5053286;28;20060;-91
2022/08/26 05:44:37;;;;;;;0.55;0.52;;;;;;;25.06;50.57;98945.34;5070786;28;20036;-89
2022/08/26 05:47:03;;;;;;;1.90;1.77;;;;;;;25.08;50.61;98956.84;5070603;28;20032;-92
2022/08/26 05:49:28;;;;;;;4.68;2.28;;;;;;;25.30;50.97;98955.88;5070487;28;20490;-90
2022/08/26 05:51:54;;;;;;;18.30;1.05;;;;;;;25.50;50.78;98973.03;5069357;28;20044;-86
2022/08/26 05:54:19;;;;;;;1.70;1.52;;;;;;;25.44;49.97;98957.38;5069508;28;20123;-90
2022/08/26 05:56:45;;;;;;;0.45;0.45;;;;;;;25.46;50.40;98963.47;5070419;28;20028;-89
2022/08/26 05:59:13;;;;;;;10.55;1.00;;;;;;;25.88;49.47;99008.41;5052064;28;20040;-89
2022/08/26 06:01:38;;;;;;;4.22;1.92;;;;;;;25.90;50.69;99007.28;5070975;28;20038;-88
2022/08/26 06:04:04;;;;;;;0.47;0.47;;;;;;;25.65;50.03;98978.88;5070812;28;20119;-89
2022/08/26 06:06:33;;;;;;;6.95;2.22;;;;;;;25.36;49.38;98927.47;5069555;28;20036;-89
2022/08/26 06:09:00;;;;;;;3.53;1.90;;;;;;;25.57;49.52;98969.78;5069695;28;20490;-86
2022/08/26 06:11:27;;;;;;;3.03;1.77;;;;;;;25.70;49.42;98959.56;5070245;28;20036;-90
2022/08/26 06:13:55;;;;;;;1.15;1.05;;;;;;;25.45;48.70;98950.13;5052626;28;20036;-89
2022/08/26 06:16:23;;;;;;;0.95;0.70;;;;;;;25.55;48.74;98964.50;5070339;28;20789;-90
2022/08/26 06:18:50;;;;;;;2.47;1.90;;;;;;;25.41;47.09;98970.25;5069547;28;20032;-88
2022/08/26 06:21:20;;;;;;;0.77;0.57;;;;;;;25.45;45.97;98969.84;5070477;28;20029;-91
2022/08/26 06:26:32;;;;;;;0.98;0.90;;;;;;;25.92;46.86;99002.56;5068537;28;20040;-89
2022/08/26 06:28:58;;;;;;;13.60;1.35;;;;;;;26.13;47.45;99023.28;5068441;28;20036;-90
2022/08/26 06:31:25;;;;;;;1.77;1.15;;;;;;;25.96;46.68;99008.53;5050413;28;20093;-90
2022/08/26 06:33:51;;;;;;;2.00;1.10;;;;;;;26.09;46.54;98992.97;5050245;28;20567;-91
2022/08/26 06:36:23;;;;;;;2.72;2.47;;;;;;;26.39;46.63;99042.53;5067898;28;20566;-90
2022/08/26 06:38:50;;;;;;;2.72;2.20;;;;;;;26.11;46.14;98992.84;5049800;28;20529;-90
2022/08/26 06:41:19;;;;;;;26.05;3.35;;;;;;;26.09;46.28;98979.47;5068151;28;20047;-90
2022/08/26 06:43:48;;;;;;;0.90;0.75;;;;;;;26.04;46.02;98976.34;5049338;28;20051;-91
2022/08/26 06:46:17;;;;;;;0.30;0.30;;;;;;;26.11;46.43;98971.22;5049666;28;20836;-89
2022/08/26 06:48:44;;;;;;;0.50;0.50;;;;;;;26.29;47.55;99021.88;5049935;28;20032;-91
2022/08/26 06:51:20;;;;;;;2.47;2.28;;;;;;;26.22;46.65;99019.72;5067535;28;20040;-89
2022/08/26 06:53:48;;;;;;;2.03;1.10;;;;;;;26.48;46.56;99045.38;5049028;28;20032;-89
2022/08/26 06:56:17;;;;;;;1.55;0.75;;;;;;;26.44;45.98;99032.13;5049355;28;20036;-90
2022/08/26 06:58:43;;;;;;;0.82;0.77;;;;;;;26.47;45.77;99032.88;5067848;28;20865;-89
2022/08/26 07:01:23;;;;;;;13.77;4.07;;;;;;;26.56;46.78;99049.09;5049530;28;20024;-90
2022/08/26 07:03:50;;;;;;;7.25;1.95;;;;;;;26.55;45.48;99033.84;5067471;28;20071;-90
2022/08/26 07:06:19;;;;;;;3.13;1.15;;;;;;;26.77;45.40;99081.47;5067362;28;20062;-90
2022/08/26 07:08:49;;;;;;;1.55;1.42;;;;;;;26.89;45.41;99075.91;5049918;28;20039;-91
2022/08/26 07:11:15;;;;;;;7.53;0.88;;;;;;;26.95;44.75;99011.22;5049644;28;20041;-89
2022/08/26 07:13:41;;;;;;;7.22;1.10;;;;;;;26.58;44.97;98998.41;5049481;28;20033;-91
2022/08/26 07:16:11;;;;;;;2.83;1.58;;;;;;;27.11;44.79;99063.91;5049415;28;20029;-90
2022/08/26 07:18:38;;;;;;;2.17;1.48;;;;;;;27.02;45.13;99029.59;5066895;28;20032;-89
2022/08/26 07:21:06;;;;;;;0.88;0.77;;;;;;;26.96;43.79;98987.75;5049574;28;20047;-90
2022/08/26 07:23:33;;;;;;;1.10;1.00;;;;;;;27.09;45.79;98995.56;5067397;28;20032;-90
2022/08/26 07:26:02;;;;;;;3.60;0.70;;;;;;;27.36;43.66;99021.00;5049181;28;20469;-91
2022/08/26 07:28:28;;;;;;;0.82;0.73;;;;;;;27.75;43.63;99040.69;5049182;28;20218;-90
2022/08/26 07:30:54;;;;;;;2.92;0.98;;;;;;;27.75;44.09;99024.44;5067392;28;20510;-90
2022/08/26 07:33:19;;;;;;;5.95;2.10;;;;;;;27.53;42.63;99012.13;5066693;28;20482;-89
2022/08/26 07:35:45;;;;;;;4.35;1.90;;;;;;;27.70;42.26;99045.72;5066477;28;20037;-89
2022/08/26 07:38:12;;;;;;;1.58;0.93;;;;;;;27.63;41.32;99021.06;5070744;28;20417;-89
2022/08/26 07:40:38;;;;;;;13.38;3.72;;;;;;;27.90;42.37;99032.06;5070790;28;20043;-88
2022/08/26 07:43:03;;;;;;;5.10;1.48;;;;;;;27.64;42.28;99019.22;5071113;28;20055;-88
2022/08/26 07:45:29;;;;;;;2.22;1.38;;;;;;;27.43;42.53;99016.72;5071072;28;20028;-89
2022/08/26 07:47:54;;;;;;;0.95;0.90;;;;;;;27.66;43.57;99030.75;5071324;28;20066;-90
2022/08/26 07:50:21;;;;;;;2.35;1.45;;;;;;;27.90;42.53;99035.66;5071471;28;20024;-90
2022/08/26 07:52:47;;;;;;;0.82;0.82;;;;;;;27.88;41.70;99007.81;5052955;28;20032;-86
2022/08/26 07:55:13;;;;;;;0.35;0.17;;;;;;;28.23;42.63;99055.03;5070773;28;20584;-87
2022/08/26 07:57:38;;;;;;;1.60;1.15;;;;;;;28.33;42.34;99063.09;5070822;28;20070;-88
2022/08/26 08:00:07;;;;;;;2.42;1.52;;;;;;;28.37;42.24;99050.94;5070530;28;20036;-89
2022/08/26 08:02:33;;;;;;;1.60;1.38;;;;;;;28.59;41.69;99057.81;5052092;28;20410;-88
2022/08/26 08:04:58;;;;;;;1.40;1.17;;;;;;;28.57;41.89;99033.53;5070531;28;20028;-90
2022/08/26 08:07:25;;;;;;;1.77;1.05;;;;;;;28.85;40.97;99022.63;5070725;28;20032;-88
2022/08/26 08:09:50;;;;;;;6.00;2.28;;;;;;;29.44;42.14;99050.09;5070333;28;20546;-89
2022/08/26 08:12:18;;;;;;;13.35;2.58;;;;;;;29.28;40.59;99030.97;5052709;28;20097;-88
2022/08/26 08:14:45;;;;;;;2.03;1.77;;;;;;;29.53;39.05;99050.13;5052263;28;20081;-89
2022/08/26 08:17:12;;;;;;;1.13;0.88;;;;;;;29.06;38.48;99035.84;5052367;28;20036;-89
2022/08/26 08:19:37;;;;;;;1.63;1.10;;;;;;;29.13;38.88;99049.63;5069909;28;20036;-89
2022/08/26 08:22:04;;;;;;;2.88;1.77;;;;;;;28.90;40.29;99020.31;5052461;28;20108;-90
2022/08/26 08:24:32;;;;;;;0.22;0.22;;;;;;;29.07;40.70;99077.41;5070203;28;20059;-88
2022/08/26 08:26:59;;;;;;;0.95;0.80;;;;;;;29.04;38.86;99023.44;5069727;28;20037;-88
2022/08/26 08:29:26;;;;;;;11.95;1.15;;;;;;;28.83;39.87;99010.22;5070076;28;20032;-89
2022/08/26 08:31:52;;;;;;;2.47;1.73;;;;;;;29.13;40.28;99040.66;5070499;28;20024;-89
2022/08/26 08:34:18;;;;;;;0.98;0.68;;;;;;;29.04;40.96;99035.16;5051730;28;20419;-89
2022/08/26 08:36:45;;;;;;;0.93;0.82;;;;;;;29.30;41.84;99042.50;5070457;28;20035;-89
2022/08/26 08:39:11;;;;;;;2.15;1.27;;;;;;;29.15;40.58;99035.91;5069871;28;20119;-89
2022/08/26 08:41:51;;;;;;;1.42;1.02;;;;;;;29.19;39.26;99067.19;5069442;28;20044;-92
2022/08/26 08:44:23;;;;;;;4.32;1.90;;;;;;;28.68;39.51;99023.50;5052263;28;20067;-88
2022/08/26 08:47:04;;;;;;;1.75;0.93;;;;;;;28.83;39.66;99021.09;5069423;28;20024;-90
2022/08/26 08:49:32;;;;;;;1.58;1.25;;;;;;;28.69;40.31;99034.19;5065012;28;20494;-89
2022/08/26 08:52:28;;;;;;;1.55;0.95;;;;;;;29.25;39.79;99058.44;5069921;28;20021;-86
2022/08/26 08:54:54;;;;;;;1.90;0.98;;;;;;;28.98;39.72;99038.53;5051669;28;20034;-87
2022/08/26 08:57:30;;;;;;;2.10;1.33;;;;;;;29.46;41.24;99049.94;5069538;28;20111;-88
2022/08/26 09:00:07;;;;;;;5.55;3.47;;;;;;;29.46;41.30;99050.75;5069337;28;20569;-87
2022/08/26 09:02:42;;;;;;;1.92;1.13;;;;;;;29.10;40.15;99009.22;5069866;28;20036;-89
2022/08/26 09:05:22;;;;;;;6.75;1.15;;;;;;;29.21;39.61;99043.44;5051296;28;20024;-88
2022/08/26 09:08:02;;;;;;;2.30;2.00;;;;;;;29.39;40.43;99057.84;5035140;28;20041;-89
2022/08/26 09:10:48;;;;;;;3.70;0.80;;;;;;;29.78;40.32;99049.25;5043615;28;20113;-89
2022/08/26 09:13:16;;;;;;;1.35;1.13;;;;;;;30.02;38.77;99044.13;5024027;28;20056;-89
2022/08/26 09:15:57;;;;;;;1.45;1.35;;;;;;;29.95;37.32;99057.50;5053048;28;20502;-89
2022/08/26 09:18:47;;;;;;;3.60;2.28;;;;;;;29.77;41.26;99047.53;5068306;28;20044;-88
2022/08/26 09:21:15;;;;;;;4.55;2.72;;;;;;;29.98;40.91;99040.84;5050917;28;20517;-89
2022/08/26 09:23:42;;;;;;;1.00;0.93;;;;;;;30.07;40.37;99034.44;5051051;28;20083;-89
2022/08/26 09:26:19;;;;;;;8.57;1.55;;;;;;;30.28;38.09;99049.47;5045988;28;20046;-87
2022/08/26 09:28:57;;;;;;;1.25;0.63;;;;;;;30.68;39.50;99039.72;5031105;28;20029;-86
2022/08/26 09:31:33;;;;;;;0.57;0.57;;;;;;;30.96;36.34;99059.31;5049561;28;20029;-87
2022/08/26 09:34:12;;;;;;;1.00;0.70;;;;;;;30.70;38.57;99041.25;5049489;28;20120;-89
2022/08/26 09:36:42;;;;;;;1.15;1.02;;;;;;;30.47;37.44;99016.56;5063071;28;20039;-90
2022/08/26 09:39:24;;;;;;;15.60;2.55;;;;;;;30.40;36.05;99040.03;5070493;28;20090;-90
2022/08/26 09:42:04;;;;;;;7.07;2.00;;;;;;;30.91;38.78;99064.41;5070113;28;20165;-88
2022/08/26 09:44:31;;;;;;;4.85;2.22;;;;;;;30.92;36.11;98989.88;5070160;28;20520;-88
2022/08/26 09:46:58;;;;;;;8.20;2.05;;;;;;;31.10;34.09;99035.19;5070522;28;20028;-88
2022/08/26 09:49:37;;;;;;;1.45;0.88;;;;;;;31.73;33.11;99052.59;5070441;28;20044;-91
2022/08/26 09:52:24;;;;;;;9.57;2.00;;;;;;;31.94;31.81;99033.78;5069128;28;20438;-88
2022/08/26 09:55:10;;;;;;;2.85;1.77;;;;;;;32.12;31.82;99035.47;5049783;28;20067;-86
2022/08/26 09:57:52;;;;;;;9.88;2.28;;;;;;;32.33;31.02;99047.63;5067627;28;20490;-89
2022/08/26 10:00:54;;;;;;;1.30;0.90;;;;;;;32.21;32.96;99053.47;5067005;28;20181;-87
2022/08/26 10:03:28;;;;;;;1.85;1.65;;;;;;;32.35;30.16;99024.59;5051361;28;20048;-89
2022/08/26 10:06:17;;;;;;;2.00;0.88;;;;;;;31.85;31.07;99009.47;5067996;28;20028;-89
2022/08/26 10:08:50;;;;;;;2.30;1.15;;;;;;;31.91;31.19;99061.41;5069115;28;20028;-90
2022/08/26 10:11:25;;;;;;;3.50;1.75;;;;;;;31.94;30.01;99062.94;5081163;28;20042;-91
2022/08/26 10:13:56;;;;;;;2.22;1.42;;;;;;;32.30;30.11;99057.00;5071015;28;20047;-91
2022/08/26 10:16:33;;;;;;;2.72;1.73;;;;;;;31.80;29.04;99045.44;5090098;28;20036;-88
2022/08/26 10:19:12;;;;;;;0.52;0.52;;;;;;;31.84;29.95;99054.97;5070391;28;20032;-88
2022/08/26 10:21:50;;;;;;;1.38;1.05;;;;;;;31.93;29.87;99043.00;5088860;28;20032;-88
2022/08/26 10:24:27;;;;;;;2.25;1.55;;;;;;;31.85;29.92;99045.75;5088316;28;20074;-87
2022/08/26 10:27:09;;;;;;;7.35;3.03;;;;;;;31.47;30.76;99064.56;5087883;28;20092;-87
2022/08/26 10:29:49;;;;;;;1.63;1.30;;;;;;;31.56;30.67;99057.28;5069123;28;20469;-87
2022/08/26 10:32:33;;;;;;;2.08;1.15;;;;;;;31.66;31.30;99065.25;5062350;28;20111;-87
2022/08/26 10:35:00;;;;;;;0.65;0.65;;;;;;;31.67;29.53;99048.72;5088985;28;20028;-87
2022/08/26 10:37:36;;;;;;;0.45;0.45;;;;;;;31.64;28.96;99010.03;5088535;28;20024;-87
2022/08/26 10:40:15;;;;;;;3.13;0.68;;;;;;;31.74;29.85;99046.97;5088242;28;20030;-86
2022/08/26 10:43:07;;;;;;;1.75;0.90;;;;;;;31.75;29.65;99040.50;5087616;28;20156;-88
2022/08/26 10:45:37;;;;;;;2.05;1.48;;;;;;;31.53;31.13;99055.72;5087893;28;20082;-87
2022/08/26 10:48:15;;;;;;;2.53;1.20;;;;;;;31.43;30.33;99038.69;5087469;28;20024;-86
2022/08/26 10:50:43;;;;;;;2.70;2.08;;;;;;;31.58;28.85;99066.13;5069311;28;20100;-85
2022/08/26 10:53:38;;;;;;;1.58;1.00;;;;;;;31.18;29.43;99056.94;5087233;28;20039;-86
2022/08/26 10:56:07;;;;;;;2.08;1.58;;;;;;;31.11;30.28;99096.78;5087038;28;20024;-87
2022/08/26 10:58:55;;;;;;;1.65;0.93;;;;;;;30.94;30.66;99085.00;5087448;28;20027;-88
2022/08/26 11:01:41;;;;;;;3.88;1.88;;;;;;;30.95;31.66;99081.25;5068910;28;20042;-90
2022/08/26 11:04:37;;;;;;;7.18;2.47;;;;;;;30.80;31.30;99079.22;5087214;28;20085;-87
2022/08/26 11:07:27;;;;;;;1.73;1.27;;;;;;;30.59;31.97;99076.13;5087253;28;20063;-84
2022/08/26 11:09:53;;;;;;;3.28;1.85;;;;;;;30.41;31.60;99052.59;5087415;28;20055;-88
2022/08/26 11:12:44;;;;;;;3.33;2.20;;;;;;;30.93;31.14;99062.38;5087564;28;20063;-87
2022/08/26 11:15:35;;;;;;;2.80;1.77;;;;;;;30.92;30.42;99066.09;5080174;28;20040;-88
2022/08/26 11:18:04;;;;;;;1.27;1.02;;;;;;;31.15;31.08;99040.94;5087006;28;20035;-86
2022/08/26 11:20:44;;;;;;;3.22;2.58;;;;;;;31.46;30.70;99067.47;5087138;28;20413;-86
2022/08/26 11:23:12;;;;;;;4.60;0.88;;;;;;;31.55;30.25;99069.19;5087284;28;20039;-85
2022/08/26 11:25:57;;;;;;;0.63;0.55;;;;;;;31.58;29.18;99063.41;5087183;28;20075;-87
2022/08/26 11:28:36;;;;;;;1.83;1.63;;;;;;;31.72;29.22;99032.69;5086867;28;20031;-86
2022/08/26 11:31:07;;;;;;;2.47;1.38;;;;;;;31.67;28.91;99026.91;5087091;28;20032;-87
2022/08/26 11:33:57;;;;;;;4.45;1.80;;;;;;;31.35;30.08;99047.72;5086812;28;20067;-86
2022/08/26 11:36:45;;;;;;;1.85;1.08;;;;;;;31.66;30.72;99055.19;5087024;28;20039;-86
2022/08/26 11:39:24;;;;;;;3.88;1.52;;;;;;;31.16;30.76;99019.00;5086737;28;20032;-88
2022/08/26 11:41:53;;;;;;;2.35;1.13;;;;;;;31.31;30.79;98997.34;5086705;28;20497;-86
2022/08/26 11:44:24;;;;;;;1.02;0.60;;;;;;;31.45;29.83;99019.44;5086663;28;20078;-85
2022/08/26 11:47:10;;;;;;;1.13;0.77;;;;;;;31.67;29.59;99026.91;5086976;28;20055;-85
2022/08/26 11:49:36;;;;;;;3.25;1.55;;;;;;;32.37;30.53;99041.63;5086820;28;20040;-86